sensor_id;sensor_type;location;lat;lon;timestamp;temperature;humidity
41080;DHT22;26826;50.718;7.114;2022-09-12T00:05:32;14.50;99.90
41080;DHT22;26826;50.718;7.114;2022-09-12T00:15:43;14.50;99.90
41080;DHT22;26826;50.718;7.114;2022-09-12T00:25:46;14.40;99.90
41080;DHT22;26826;50.718;7.114;2022-09-12T00:35:50;14.10;99.90
41080;DHT22;26826;50.718;7.114;2022-09-12T00:45:52;14.00;99.90
41080;DHT22;26826;50.718;7.114;2022-09-12T00:55:54;13.90;99.90
41080;DHT22;26826;50.718;7.114;2022-09-12T01:06:12;13.90;99.90
41080;DHT22;26826;50.718;7.114;2022-09-12T01:16:15;13.80;99.90
41080;DHT22;26826;50.718;7.114;2022-09-12T01:26:39;13.70;99.90
41080;DHT22;26826;50.718;7.114;2022-09-12T01:36:47;13.50;99.90
41080;DHT22;26826;50.718;7.114;2022-09-12T01:47:26;13.50;99.90
41080;DHT22;26826;50.718;7.114;2022-09-12T01:57:36;13.50;99.90
41080;DHT22;26826;50.718;7.114;2022-09-12T02:07:51;13.50;99.90
41080;DHT22;26826;50.718;7.114;2022-09-12T02:17:55;13.50;99.90
41080;DHT22;26826;50.718;7.114;2022-09-12T02:28:08;13.40;99.90
41080;DHT22;26826;50.718;7.114;2022-09-12T02:38:26;13.30;99.90
41080;DHT22;26826;50.718;7.114;2022-09-12T02:48:30;13.50;99.90
41080;DHT22;26826;50.718;7.114;2022-09-12T02:58:33;13.50;99.90
41080;DHT22;26826;50.718;7.114;2022-09-12T03:08:59;13.40;99.90
41080;DHT22;26826;50.718;7.114;2022-09-12T03:19:14;13.40;99.90
41080;DHT22;26826;50.718;7.114;2022-09-12T03:29:19;13.40;99.90
41080;DHT22;26826;50.718;7.114;2022-09-12T03:39:22;13.20;99.90
41080;DHT22;26826;50.718;7.114;2022-09-12T03:49:23;13.20;99.90
41080;DHT22;26826;50.718;7.114;2022-09-12T03:59:24;13.20;99.90
41080;DHT22;26826;50.718;7.114;2022-09-12T04:09:24;13.00;99.90
41080;DHT22;26826;50.718;7.114;2022-09-12T04:19:25;12.90;99.90
41080;DHT22;26826;50.718;7.114;2022-09-12T04:29:26;12.80;99.90
41080;DHT22;26826;50.718;7.114;2022-09-12T04:39:28;12.70;99.90
41080;DHT22;26826;50.718;7.114;2022-09-12T04:49:29;12.70;99.90
41080;DHT22;26826;50.718;7.114;2022-09-12T04:59:30;12.70;99.90
41080;DHT22;26826;50.718;7.114;2022-09-12T05:09:30;12.60;99.90
41080;DHT22;26826;50.718;7.114;2022-09-12T05:19:31;12.70;99.90
41080;DHT22;26826;50.718;7.114;2022-09-12T05:29:32;12.90;99.90
41080;DHT22;26826;50.718;7.114;2022-09-12T05:39:33;13.00;99.90
41080;DHT22;26826;50.718;7.114;2022-09-12T05:49:34;13.20;99.90
41080;DHT22;26826;50.718;7.114;2022-09-12T05:59:35;13.30;99.90
41080;DHT22;26826;50.718;7.114;2022-09-12T06:09:36;13.60;99.90
41080;DHT22;26826;50.718;7.114;2022-09-12T06:19:36;13.90;99.90
41080;DHT22;26826;50.718;7.114;2022-09-12T06:29:37;14.10;99.90
41080;DHT22;26826;50.718;7.114;2022-09-12T06:39:37;14.30;99.90
41080;DHT22;26826;50.718;7.114;2022-09-12T06:49:38;14.60;99.90
41080;DHT22;26826;50.718;7.114;2022-09-12T06:59:38;14.60;99.90
41080;DHT22;26826;50.718;7.114;2022-09-12T07:09:39;15.00;99.90
41080;DHT22;26826;50.718;7.114;2022-09-12T07:19:39;15.30;99.90
41080;DHT22;26826;50.718;7.114;2022-09-12T07:29:40;15.80;99.90
41080;DHT22;26826;50.718;7.114;2022-09-12T07:39:41;16.60;99.90
41080;DHT22;26826;50.718;7.114;2022-09-12T07:49:41;17.20;99.90
41080;DHT22;26826;50.718;7.114;2022-09-12T07:59:42;17.50;99.90
41080;DHT22;26826;50.718;7.114;2022-09-12T08:09:42;17.60;99.90
41080;DHT22;26826;50.718;7.114;2022-09-12T08:19:43;18.10;99.90
41080;DHT22;26826;50.718;7.114;2022-09-12T08:29:44;18.20;99.90
41080;DHT22;26826;50.718;7.114;2022-09-12T08:39:44;18.50;99.90
41080;DHT22;26826;50.718;7.114;2022-09-12T08:50:05;19.00;99.90
41080;DHT22;26826;50.718;7.114;2022-09-12T09:00:12;19.70;99.90
41080;DHT22;26826;50.718;7.114;2022-09-12T09:20:44;21.10;99.90
41080;DHT22;26826;50.718;7.114;2022-09-12T09:30:46;21.10;99.90
41080;DHT22;26826;50.718;7.114;2022-09-12T09:51:04;22.20;99.90
41080;DHT22;26826;50.718;7.114;2022-09-12T10:01:13;22.10;99.90
41080;DHT22;26826;50.718;7.114;2022-09-12T10:31:43;23.50;99.90
41080;DHT22;26826;50.718;7.114;2022-09-12T10:41:45;24.10;99.90
41080;DHT22;26826;50.718;7.114;2022-09-12T10:51:47;24.50;99.90
41080;DHT22;26826;50.718;7.114;2022-09-12T11:01:59;24.20;99.90
41080;DHT22;26826;50.718;7.114;2022-09-12T11:43:36;25.80;99.10
41080;DHT22;26826;50.718;7.114;2022-09-12T11:53:39;25.40;98.70
41080;DHT22;26826;50.718;7.114;2022-09-12T12:03:44;26.20;97.50
41080;DHT22;26826;50.718;7.114;2022-09-12T12:13:55;26.60;96.00
41080;DHT22;26826;50.718;7.114;2022-09-12T12:34:06;26.50;95.70
41080;DHT22;26826;50.718;7.114;2022-09-12T13:04:44;27.30;95.60
41080;DHT22;26826;50.718;7.114;2022-09-12T13:24:47;27.60;95.60
41080;DHT22;26826;50.718;7.114;2022-09-12T13:34:56;27.10;96.10
41080;DHT22;26826;50.718;7.114;2022-09-12T13:45:09;27.50;95.40
41080;DHT22;26826;50.718;7.114;2022-09-12T13:55:24;27.40;95.30
41080;DHT22;26826;50.718;7.114;2022-09-12T14:05:26;27.30;95.60
41080;DHT22;26826;50.718;7.114;2022-09-12T14:15:31;27.40;95.00
41080;DHT22;26826;50.718;7.114;2022-09-12T14:25:37;27.50;94.50
41080;DHT22;26826;50.718;7.114;2022-09-12T14:35:43;27.30;94.80
41080;DHT22;26826;50.718;7.114;2022-09-12T14:45:51;27.30;93.90
41080;DHT22;26826;50.718;7.114;2022-09-12T14:56:12;27.60;93.80
41080;DHT22;26826;50.718;7.114;2022-09-12T15:16:16;27.00;93.60
41080;DHT22;26826;50.718;7.114;2022-09-12T15:26:19;26.90;93.20
41080;DHT22;26826;50.718;7.114;2022-09-12T15:36:21;26.80;92.70
41080;DHT22;26826;50.718;7.114;2022-09-12T15:46:22;27.40;92.70
41080;DHT22;26826;50.718;7.114;2022-09-12T15:56:23;26.60;91.80
41080;DHT22;26826;50.718;7.114;2022-09-12T16:06:23;26.40;91.70
41080;DHT22;26826;50.718;7.114;2022-09-12T16:16:24;26.10;92.20
41080;DHT22;26826;50.718;7.114;2022-09-12T16:26:25;26.10;91.60
41080;DHT22;26826;50.718;7.114;2022-09-12T16:36:25;25.60;91.60
41080;DHT22;26826;50.718;7.114;2022-09-12T16:46:27;25.60;92.30
41080;DHT22;26826;50.718;7.114;2022-09-12T16:56:30;25.30;92.20
41080;DHT22;26826;50.718;7.114;2022-09-12T17:06:31;25.20;92.30
41080;DHT22;26826;50.718;7.114;2022-09-12T17:16:44;25.00;92.80
41080;DHT22;26826;50.718;7.114;2022-09-12T17:26:45;24.80;93.50
41080;DHT22;26826;50.718;7.114;2022-09-12T17:36:46;24.50;93.80
41080;DHT22;26826;50.718;7.114;2022-09-12T17:56:51;23.80;95.30
41080;DHT22;26826;50.718;7.114;2022-09-12T18:06:51;23.40;96.10
41080;DHT22;26826;50.718;7.114;2022-09-12T18:16:52;23.10;96.30
41080;DHT22;26826;50.718;7.114;2022-09-12T18:26:53;22.80;96.60
41080;DHT22;26826;50.718;7.114;2022-09-12T18:36:55;22.50;97.10
41080;DHT22;26826;50.718;7.114;2022-09-12T18:46:56;22.40;97.30
41080;DHT22;26826;50.718;7.114;2022-09-12T18:56:56;22.10;98.00
41080;DHT22;26826;50.718;7.114;2022-09-12T19:06:57;22.00;98.50
41080;DHT22;26826;50.718;7.114;2022-09-12T19:16:57;21.80;99.10
41080;DHT22;26826;50.718;7.114;2022-09-12T19:26:58;21.50;99.90
41080;DHT22;26826;50.718;7.114;2022-09-12T19:36:59;21.20;99.90
41080;DHT22;26826;50.718;7.114;2022-09-12T19:46:59;21.00;99.90
41080;DHT22;26826;50.718;7.114;2022-09-12T19:57:00;21.00;99.90
41080;DHT22;26826;50.718;7.114;2022-09-12T20:07:00;20.80;99.90
41080;DHT22;26826;50.718;7.114;2022-09-12T20:17:01;20.60;99.90
41080;DHT22;26826;50.718;7.114;2022-09-12T20:27:01;20.40;99.90
41080;DHT22;26826;50.718;7.114;2022-09-12T20:37:02;20.40;99.90
41080;DHT22;26826;50.718;7.114;2022-09-12T20:47:02;20.40;99.90
41080;DHT22;26826;50.718;7.114;2022-09-12T20:57:03;20.40;99.90
41080;DHT22;26826;50.718;7.114;2022-09-12T21:07:04;20.20;99.90
41080;DHT22;26826;50.718;7.114;2022-09-12T21:17:04;20.10;99.90
41080;DHT22;26826;50.718;7.114;2022-09-12T21:27:05;19.90;99.90
41080;DHT22;26826;50.718;7.114;2022-09-12T21:37:06;19.60;99.90
41080;DHT22;26826;50.718;7.114;2022-09-12T21:47:06;19.50;99.90
41080;DHT22;26826;50.718;7.114;2022-09-12T21:57:07;19.40;99.90
41080;DHT22;26826;50.718;7.114;2022-09-12T22:07:08;19.40;99.90
41080;DHT22;26826;50.718;7.114;2022-09-12T22:17:09;19.20;99.90
41080;DHT22;26826;50.718;7.114;2022-09-12T22:27:12;19.10;99.90
41080;DHT22;26826;50.718;7.114;2022-09-12T22:37:12;18.90;99.90
41080;DHT22;26826;50.718;7.114;2022-09-12T22:47:13;18.90;99.90
41080;DHT22;26826;50.718;7.114;2022-09-12T22:57:13;18.90;99.90
41080;DHT22;26826;50.718;7.114;2022-09-12T23:07:14;18.90;99.90
41080;DHT22;26826;50.718;7.114;2022-09-12T23:17:14;18.80;99.90
41080;DHT22;26826;50.718;7.114;2022-09-12T23:27:15;18.70;99.90
41080;DHT22;26826;50.718;7.114;2022-09-12T23:37:15;18.60;99.90
41080;DHT22;26826;50.718;7.114;2022-09-12T23:47:16;18.30;99.90
41080;DHT22;26826;50.718;7.114;2022-09-12T23:57:17;18.10;99.90
